Data for 06/20/2015

Time Sea-Level Adjusted Pressure Absolute Pressure Temperature Relative Humidity Dew Point   
(mb) (inHg) (mb) (inHg) (C) (F) (%) (C) (F)
00:05 1019 30.09 849 25.07 15.7 60.2 38 1.5 34.8
00:10 1019 30.09 849 25.07 15.2 59.4 38 1.1 34.1
00:15 1019 30.09 849 25.07 15.1 59.3 38 1.1 34
00:20 1019 30.09 849 25.07 15.2 59.4 37 0.8 33.5
00:25 1019 30.09 849 25.07 15.3 59.6 37 0.9 33.6
00:30 1020 30.12 849 25.07 15.3 59.5 37 1 33.7
00:35 1020 30.12 849 25.07 15.3 59.6 37 0.8 33.5
00:40 1020 30.12 849 25.07 15.4 59.7 37 0.7 33.3
00:45 1020 30.12 849 25.07 15.6 60 35 0.2 32.4
00:50 1020 30.12 849 25.07 15.7 60.3 35 0.3 32.5
00:55 1020 30.12 849 25.07 15.8 60.4 35 0.3 32.6
01:00 1020 30.12 849 25.07 15.7 60.3 36 0.8 33.4
01:05 1020 30.12 849 25.07 15.5 59.9 37 0.9 33.7
01:10 1020 30.12 849 25.07 15.4 59.8 37 1.1 34
01:15 1020 30.12 849 25.07 15.3 59.6 38 1.1 34
01:20 1020 30.12 849 25.07 15.2 59.4 37 0.6 33
01:25 1020 30.12 849 25.07 15.2 59.4 36 0.3 32.5
01:30 1020 30.12 849 25.07 15.2 59.3 38 0.9 33.7
01:35 1020 30.12 849 25.07 14.9 58.9 38 1 33.8
01:40 1020 30.12 849 25.07 14.7 58.4 39 0.9 33.7
01:45 1020 30.12 849 25.07 14.4 58 39 0.7 33.3
01:50 1020 30.12 849 25.07 14.4 57.9 39 0.6 33.1
01:55 1020 30.12 849 25.07 14.3 57.7 39 0.7 33.3
02:00 1020 30.12 849 25.07 14.2 57.6 40 0.9 33.6
02:05 1020 30.12 849 25.07 14 57.2 44 2.1 35.9
02:10 1020 30.12 849 25.07 13.3 55.9 46 2.1 35.7
02:15 1020 30.12 850 25.1 13.1 55.5 45 1.4 34.5
02:20 1020 30.12 850 25.1 13 55.5 44 1.2 34.1
02:25 1020 30.12 850 25.1 13 55.5 43 0.7 33.3
02:30 1020 30.12 850 25.1 13.3 55.9 43 0.9 33.6
02:35 1020 30.12 849 25.07 13.1 55.6 45 1.4 34.6
02:40 1020 30.12 850 25.1 12.7 54.9 46 1.4 34.6
02:45 1020 30.12 849 25.07 12.6 54.6 47 1.5 34.7
02:50 1020 30.12 849 25.07 12.4 54.3 46 1 33.8
02:55 1020 30.12 850 25.1 12.3 54.1 47 1.3 34.4
03:00 1020 30.12 850 25.1 12 53.6 47 1.1 34
03:05 1020 30.12 850 25.1 11.8 53.2 50 1.9 35.4
03:10 1020 30.12 850 25.1 11.6 52.9 51 1.8 35.2
03:15 1020 30.12 850 25.1 11.4 52.6 51 1.8 35.3
03:20 1020 30.12 850 25.1 11.4 52.5 50 1.5 34.7
03:25 1020 30.12 850 25.1 11.5 52.7 50 1.4 34.6
03:30 1020 30.12 850 25.1 11.5 52.6 51 1.6 35
03:35 1020 30.12 850 25.1 11.3 52.4 51 1.5 34.7
03:40 1020 30.12 850 25.1 11.3 52.3 50 1.3 34.4
03:45 1020 30.12 850 25.1 11.1 52.1 52 1.6 34.8
03:50 1020 30.12 850 25.1 11 51.8 52 1.6 34.9
03:55 1020 30.12 850 25.1 10.9 51.6 52 1.6 34.8
04:00 1020 30.12 850 25.1 10.8 51.4 52 1.4 34.6
04:05 1020 30.12 850 25.1 10.7 51.3 52 1.4 34.5
04:10 1020 30.12 850 25.1 10.5 50.8 53 1.4 34.6
04:15 1020 30.12 850 25.1 10.3 50.6 54 1.4 34.6
04:20 1020 30.12 850 25.1 10.2 50.3 55 1.6 34.8
04:25 1021 30.15 850 25.1 10 49.9 56 1.7 35
04:30 1021 30.15 850 25.1 9.7 49.5 57 1.5 34.8
04:35 1021 30.15 850 25.1 9.6 49.3 57 1.6 34.8
04:40 1021 30.15 850 25.1 9.5 49.2 57 1.5 34.7
04:45 1021 30.15 850 25.1 9.5 49.2 57 1.5 34.6
04:50 1021 30.15 850 25.1 9.5 49.2 57 1.5 34.8
04:55 1021 30.15 850 25.1 9.5 49 57 1.4 34.5
05:00 1021 30.15 850 25.1 9.6 49.4 56 1.3 34.3
05:05 1020 30.12 850 25.1 9.9 49.7 55 1.2 34.1
05:10 1020 30.12 850 25.1 10 50 53 0.9 33.6
05:15 1020 30.12 850 25.1 10.3 50.5 52 0.9 33.6
05:20 1020 30.12 850 25.1 10.5 50.8 53 1.2 34.2
05:25 1020 30.12 850 25.1 10.5 50.8 53 1.3 34.4
05:30 1020 30.12 850 25.1 10.5 50.8 53 1.4 34.5
05:35 1020 30.12 850 25.1 10.7 51.2 52 1.2 34.1
05:40 1021 30.15 850 25.1 10.8 51.5 51 1.1 33.9
05:45 1021 30.15 850 25.1 10.9 51.6 53 1.6 34.9
05:50 1021 30.15 850 25.1 10.9 51.6 54 1.9 35.4
05:55 1021 30.15 850 25.1 11.1 52 53 1.9 35.4
06:00 1020 30.12 850 25.1 11 51.9 51 1.5 34.6
06:05 1020 30.12 850 25.1 11.1 52 53 1.9 35.4
06:10 1020 30.12 850 25.1 11.3 52.3 52 2 35.6
06:15 1020 30.12 850 25.1 11.3 52.4 53 2.1 35.7
06:20 1020 30.12 850 25.1 11.7 53 52 2.1 35.7
06:25 1020 30.12 850 25.1 11.8 53.2 52 2.2 36
06:30 1020 30.12 850 25.1 12.3 54.2 51 2.5 36.5
06:35 1021 30.15 850 25.1 12.4 54.4 51 2.7 36.9
06:40 1021 30.15 850 25.1 12.7 54.8 50 2.5 36.5
06:45 1021 30.15 850 25.1 12.9 55.1 49 2.6 36.6
06:50 1021 30.15 850 25.1 13 55.4 49 2.5 36.6
06:55 1020 30.12 850 25.1 14.1 57.3 44 2.1 35.8
07:00 1021 30.15 850 25.1 14.5 58.1 44 2.4 36.3
07:05 1021 30.15 850 25.1 14.7 58.4 44 2.6 36.8
07:10 1021 30.15 850 25.1 15.1 59.2 42 2.3 36.2
07:15 1021 30.15 850 25.1 15.7 60.2 42 2.7 36.9
07:20 1020 30.12 850 25.1 15.6 60 41 2.5 36.5
07:25 1020 30.12 850 25.1 16.2 61.2 41 2.9 37.3
07:30 1020 30.12 850 25.1 16.8 62.3 39 2.8 37.1
07:35 1020 30.12 850 25.1 16.7 62 41 3.3 38
07:40 1020 30.12 849 25.07 16 60.9 41 3 37.5
07:45 1020 30.12 849 25.07 16 60.9 42 3.3 38
07:50 1020 30.12 849 25.07 16.4 61.6 41 3.1 37.6
07:55 1020 30.12 849 25.07 16.7 62 40 3.3 37.9
08:00 1020 30.12 849 25.07 17 62.6 39 3 37.5
08:05 1020 30.12 849 25.07 16.7 62.1 39 2.9 37.3
08:10 1020 30.12 849 25.07 16.8 62.2 39 2.7 36.9
08:15 1020 30.12 849 25.07 17.1 62.7 37 2.5 36.6
08:20 1020 30.12 849 25.07 17.1 62.8 37 2.5 36.6
08:25 1020 30.12 849 25.07 16.9 62.4 38 2.5 36.4
08:30 1020 30.12 849 25.07 16.6 61.9 37 2.1 35.8
08:35 1020 30.12 849 25.07 17 62.5 36 2 35.6
08:40 1020 30.12 849 25.07 17.3 63.2 33 1 33.7
08:45 1020 30.12 849 25.07 17.2 62.9 35 1.6 34.9
08:50 1020 30.12 849 25.07 17.1 62.7 35 1.7 35.1
08:55 1020 30.12 849 25.07 16.9 62.5 35 1.6 34.8
09:00 1020 30.12 849 25.07 17.3 63.1 34 1.4 34.5
09:05 1020 30.12 849 25.07 17.4 63.4 33 1.2 34.1
09:10 1020 30.12 849 25.07 17.9 64.3 32 1.2 34.2
09:15 1020 30.12 849 25.07 18.6 65.4 32 1.5 34.7
09:20 1020 30.12 849 25.07 18.4 65.1 31 1.2 34.2
09:25 1020 30.12 849 25.07 18.7 65.7 31 1.4 34.6
09:30 1020 30.12 849 25.07 18.7 65.7 32 1.6 34.9
09:35 1020 30.12 849 25.07 18.4 65.2 32 1.4 34.5
09:40 1020 30.12 849 25.07 18.2 64.7 33 2 35.5
09:45 1020 30.12 849 25.07 18.7 65.6 33 2.3 36.1
09:50 1020 30.12 849 25.07 19.2 66.6 33 2.5 36.6
09:55 1020 30.12 849 25.07 18.5 65.2 34 2.3 36.1
10:00 1019 30.09 849 25.07 18.4 65.2 32 1.6 34.8
10:05 1019 30.09 849 25.07 18.3 64.9 32 1.6 34.8
10:10 1019 30.09 849 25.07 18.3 64.9 32 1.6 34.8
10:15 1019 30.09 849 25.07 18.8 65.8 33 2.4 36.3
10:20 1019 30.09 849 25.07 18.2 64.8 33 1.8 35.2
10:25 1019 30.09 849 25.07 18.3 64.9 33 1.8 35.2
10:30 1019 30.09 849 25.07 18 64.4 34 2.2 36
10:35 1019 30.09 849 25.07 18.6 65.5 32 1.8 35.3
10:40 1019 30.09 849 25.07 18.9 66 33 2.3 36.1
10:45 1019 30.09 849 25.07 19.4 67 31 2.1 35.8
10:50 1019 30.09 849 25.07 19 66.3 33 2.4 36.3
10:55 1019 30.09 849 25.07 18.6 65.5 32 1.7 35.1
11:00 1019 30.09 849 25.07 19 66.2 31 1.5 34.7
11:05 1019 30.09 849 25.07 19.6 67.2 31 2.1 35.8
11:10 1019 30.09 848 25.04 19.6 67.3 31 2.2 36
11:15 1019 30.09 848 25.04 20 68.1 29 1.8 35.3
11:20 1019 30.09 848 25.04 20.5 69 30 2.3 36.2
11:25 1019 30.09 848 25.04 20.5 68.9 30 2.6 36.7
11:30 1019 30.09 848 25.04 20 68 34 3.7 38.7
11:35 1019 30.09 848 25.04 19.6 67.2 32 2.6 36.7
11:40 1019 30.09 848 25.04 19.1 66.3 33 2.4 36.3
11:45 1019 30.09 848 25.04 19.8 67.6 31 2.3 36.1
11:50 1019 30.09 848 25.04 19.6 67.3 31 2.2 36
11:55 1019 30.09 848 25.04 19.7 67.4 29 1.4 34.6
12:00 1019 30.09 848 25.04 21.2 70.2 28 2.2 35.9
12:05 1019 30.09 848 25.04 21.7 71 28 2.6 36.7
12:10 1019 30.09 848 25.04 21.2 70.1 28 1.9 35.4
12:15 1019 30.09 848 25.04 21.3 70.4 29 3 37.3
12:20 1018 30.06 848 25.04 20.6 69.1 30 2.5 36.5
12:25 1018 30.06 848 25.04 20.2 68.4 31 2.6 36.8
12:30 1018 30.06 848 25.04 20.8 69.5 28 2 35.5
12:35 1018 30.06 848 25.04 21.5 70.6 28 2.5 36.5
12:40 1018 30.06 848 25.04 20.6 69.2 29 2.3 36.2
12:45 1018 30.06 847 25.01 20.5 68.9 29 2.1 35.7
12:50 1018 30.06 847 25.01 21 69.7 29 2.3 36.1
12:55 1018 30.06 847 25.01 21.2 70.2 28 2.4 36.3
13:00 1018 30.06 847 25.01 20.8 69.4 28 1.9 35.5
13:05 1018 30.06 847 25.01 21.1 70 28 2.1 35.7
13:10 1018 30.06 847 25.01 20.9 69.7 29 2.2 36
13:15 1018 30.06 847 25.01 21.4 70.5 28 2.3 36.2
13:20 1018 30.06 847 25.01 21.5 70.7 27 1.7 35.1
13:25 1018 30.06 847 25.01 21 69.8 29 2.3 36.2
13:30 1018 30.06 847 25.01 21.3 70.4 27 1.9 35.5
13:35 1018 30.06 847 25.01 21.4 70.6 27 2 35.6
13:40 1018 30.06 847 25.01 21.2 70.2 28 2.4 36.3
13:45 1018 30.06 847 25.01 21.4 70.5 28 2.3 36.1
13:50 1018 30.06 847 25.01 21.1 70 27 1.6 35
13:55 1018 30.06 847 25.01 21.3 70.4 26 1.4 34.5
14:00 1018 30.06 847 25.01 21.6 70.8 28 2.2 36
14:05 1018 30.06 847 25.01 21.5 70.8 28 2.5 36.5
14:10 1018 30.06 847 25.01 21.1 70 29 2.4 36.3
14:15 1018 30.06 847 25.01 21.2 70.1 29 2.5 36.5
14:20 1017 30.03 847 25.01 21.4 70.5 27 2 35.6
14:25 1017 30.03 847 25.01 21.7 71.1 27 2.3 36.1
14:30 1017 30.03 847 25.01 22 71.7 27 2.2 36
14:35 1017 30.03 847 25.01 22.1 71.7 27 2.3 36.2
14:40 1017 30.03 847 25.01 21.9 71.4 27 2 35.6
14:45 1017 30.03 847 25.01 22.2 71.9 25 1.6 34.9
14:50 1017 30.03 847 25.01 22.4 72.2 27 2.6 36.6
14:55 1017 30.03 847 25.01 21.7 71.1 26 1.6 34.9
15:00 1017 30.03 847 25.01 21.2 70.2 27 1.6 34.9
15:05 1017 30.03 847 25.01 21.8 71.2 25 1.3 34.3
15:10 1017 30.03 847 25.01 21.7 71.1 24 0.7 33.3
15:15 1017 30.03 847 25.01 22.6 72.8 24 1 33.8
15:20 1017 30.03 847 25.01 22.5 72.6 25 1.5 34.7
15:25 1017 30.03 847 25.01 22.7 72.8 23 0.6 33
15:30 1017 30.03 847 25.01 22.9 73.1 25 1.8 35.2
15:35 1017 30.03 847 25.01 22.9 73.1 24 1.6 34.8
15:40 1017 30.03 847 25.01 22.9 73.2 23 1.1 33.9
15:45 1017 30.03 847 25.01 23.6 74.4 23 1.6 34.8
15:50 1017 30.03 847 25.01 23.2 73.7 24 1.8 35.2
15:55 1017 30.03 847 25.01 23 73.3 24 1.8 35.2
16:00 1017 30.03 847 25.01 22.7 72.9 25 1.7 35
16:05 1017 30.03 846 24.98 24 75.2 23 1.8 35.2
16:10 1017 30.03 846 24.98 23.3 74 23 1.3 34.4
16:15 1017 30.03 846 24.98 22.7 72.8 24 1.3 34.3
16:20 1017 30.03 846 24.98 23.2 73.7 24 2 35.5
16:25 1017 30.03 846 24.98 22.8 73 25 1.9 35.4
16:30 1017 30.03 846 24.98 22.3 72.2 25 1.4 34.6
16:35 1017 30.03 846 24.98 22.9 73.2 23 0.7 33.2
16:40 1017 30.03 846 24.98 23 73.4 23 0.9 33.6
16:45 1017 30.03 846 24.98 23.3 74 22 0.6 33.1
16:50 1017 30.03 846 24.98 22.7 72.9 23 0.5 32.8
16:55 1017 30.03 846 24.98 23.1 73.6 22 0.3 32.6
17:00 1017 30.03 846 24.98 23.7 74.6 21 0.1 32.2
17:05 1017 30.03 846 24.98 23.7 74.7 22 0.9 33.5
17:10 1017 30.03 846 24.98 23 73.3 24 1.3 34.4
17:15 1017 30.03 846 24.98 22.4 72.4 25 1.8 35.2
17:20 1017 30.03 846 24.98 22.7 72.9 23 0.8 33.5
17:25 1017 30.03 846 24.98 23.5 74.3 22 0.5 32.9
17:30 1017 30.03 846 24.98 23 73.4 23 0.8 33.5
17:35 1017 30.03 846 24.98 22.4 72.4 23 0.3 32.5
17:40 1017 30.03 846 24.98 22.6 72.7 22 0.3 32.6
17:45 1017 30.03 846 24.98 22.7 72.9 22 0.2 32.3
17:50 1017 30.03 846 24.98 22.8 73.1 22 0.3 32.6
17:55 1017 30.03 846 24.98 23.2 73.7 22 0.2 32.4
18:00 1017 30.03 846 24.98 22.9 73.2 22 0.3 32.6
18:05 1017 30.03 846 24.98 23.1 73.6 24 1.4 34.5
18:10 1017 30.03 846 24.98 23.2 73.7 23 1.3 34.4
18:15 1017 30.03 846 24.98 23.2 73.8 22 0.6 33.1
18:20 1017 30.03 846 24.98 23.7 74.6 22 1 33.7
18:25 1017 30.03 846 24.98 23.6 74.5 22 1 33.8
18:30 1017 30.03 846 24.98 23.2 73.8 23 1 33.9
18:35 1017 30.03 846 24.98 22.8 73 23 0.8 33.4
18:40 1017 30.03 846 24.98 22.5 72.5 23 0.7 33.3
18:45 1017 30.03 846 24.98 22.6 72.7 24 1 33.7
18:50 1017 30.03 846 24.98 22.7 72.9 23 0.5 33
18:55 1017 30.03 846 24.98 22.6 72.6 23 0.6 33.2
19:00 1017 30.03 846 24.98 22.3 72.2 25 1.3 34.4
19:05 1017 30.03 846 24.98 22.2 71.9 24 0.7 33.3
19:10 1017 30.03 846 24.98 22.1 71.7 26 2.1 35.7
19:15 1017 30.03 846 24.98 21.9 71.5 27 2.4 36.3
19:20 1017 30.03 846 24.98 21.8 71.2 29 3.1 37.6
19:25 1017 30.03 846 24.98 21.1 70 32 3.7 38.7
19:30 1017 30.03 846 24.98 20.4 68.7 33 3.7 38.6
19:35 1017 30.03 846 24.98 20 68 34 3.6 38.6
19:40 1017 30.03 846 24.98 19.8 67.6 34 3.6 38.4
19:45 1017 30.03 846 24.98 19.7 67.4 34 3.7 38.7
19:50 1017 30.03 846 24.98 19.5 67.1 34 3.6 38.4
19:55 1017 30.03 846 24.98 19.4 66.9 35 3.6 38.5
20:00 1017 30.03 846 24.98 19.2 66.6 36 3.8 38.8
20:05 1017 30.03 846 24.98 19 66.2 36 3.7 38.7
20:10 1017 30.03 846 24.98 18.9 66 36 3.7 38.7
20:15 1017 30.03 846 24.98 18.7 65.6 37 3.8 38.8
20:20 1017 30.03 846 24.98 18.6 65.4 37 3.6 38.5
20:25 1017 30.03 846 24.98 18.5 65.4 37 3.7 38.7
20:30 1017 30.03 846 24.98 18.4 65.1 37 3.7 38.7
20:35 1017 30.03 846 24.98 18.2 64.8 38 3.8 38.9
20:40 1017 30.03 846 24.98 18.1 64.6 39 4 39.1
20:45 1017 30.03 846 24.98 17.9 64.1 40 4.1 39.3
20:50 1017 30.03 846 24.98 17.6 63.7 41 4.4 39.9
20:55 1017 30.03 846 24.98 17.4 63.2 42 4.6 40.3
21:00 1017 30.03 846 24.98 17.1 62.8 43 4.6 40.3
21:05 1017 30.03 846 24.98 16.9 62.5 44 4.8 40.7
21:10 1017 30.03 846 24.98 16.7 62.1 45 4.9 40.7
21:15 1017 30.03 846 24.98 16.6 61.8 45 4.7 40.5
21:20 1017 30.03 846 24.98 16.3 61.4 47 5 41
21:25 1017 30.03 846 24.98 15.9 60.5 48 5 40.9
21:30 1017 30.03 846 24.98 15.6 60.2 48 4.7 40.4
21:35 1017 30.03 846 24.98 15.5 59.9 49 4.9 40.8
21:40 1017 30.03 846 24.98 15.4 59.7 49 4.8 40.6
21:45 1017 30.03 846 24.98 15.4 59.6 49 4.9 40.7
21:50 1017 30.03 846 24.98 15.2 59.4 49 4.6 40.3
21:55 1017 30.03 846 24.98 15.1 59.2 50 4.9 40.8
22:00 1017 30.03 846 24.98 14.8 58.7 51 5 40.9
22:05 1017 30.03 846 24.98 14.7 58.4 50 4.6 40.2
22:10 1017 30.03 846 24.98 14.6 58.3 50 4.3 39.7
22:15 1017 30.03 846 24.98 14.6 58.2 49 4.1 39.3
22:20 1017 30.03 846 24.98 14.6 58.2 49 4 39.3
22:25 1017 30.03 846 24.98 14.6 58.4 48 4 39.1
22:30 1017 30.03 846 24.98 14.9 58.7 47 3.8 38.9
22:35 1017 30.03 846 24.98 14.8 58.6 47 3.8 38.8
22:40 1017 30.03 846 24.98 14.7 58.5 48 3.8 38.9
22:45 1017 30.03 846 24.98 14.6 58.2 48 3.8 38.8
22:50 1017 30.03 846 24.98 14.4 57.9 49 3.8 38.8
22:55 1017 30.03 846 24.98 14.3 57.7 49 3.8 38.9
23:00 1017 30.03 846 24.98 14.1 57.3 50 3.9 39.1
23:05 1017 30.03 846 24.98 13.8 56.8 52 4 39.3
23:10 1017 30.03 846 24.98 13.6 56.4 52 3.9 39
23:15 1017 30.03 846 24.98 13.5 56.2 52 3.8 38.8
23:20 1017 30.03 846 24.98 13.4 56.2 51 3.6 38.5
23:25 1017 30.03 846 24.98 13.5 56.2 51 3.5 38.2
23:30 1017 30.03 846 24.98 13.5 56.2 51 3.6 38.5
23:35 1017 30.03 846 24.98 13.4 56.1 50 3.3 38
23:40 1017 30.03 846 24.98 13.5 56.2 50 3.5 38.2
23:45 1017 30.03 846 24.98 13.4 56.2 49 3.1 37.7
23:50 1017 30.03 846 24.98 13.6 56.4 49 3.3 37.9
23:55 1017 30.03 846 24.98 13.5 56.3 50 3.2 37.8
24:00 1017 30.03 846 24.98 13.5 56.3 49 3.1 37.5